sensor_id;sensor_type;location;lat;lon;timestamp;P1;durP1;ratioP1;P2;durP2;ratioP2
62014;SDS011;47970;52.396;9.586;2022-08-01T00:00:00;6.93;;;3.72;;
62014;SDS011;47970;52.396;9.586;2022-08-01T00:02:26;6.03;;;3.22;;
62014;SDS011;47970;52.396;9.586;2022-08-01T00:04:53;5.10;;;3.30;;
62014;SDS011;47970;52.396;9.586;2022-08-01T00:07:18;10.90;;;3.42;;
62014;SDS011;47970;52.396;9.586;2022-08-01T00:09:43;8.07;;;3.37;;
62014;SDS011;47970;52.396;9.586;2022-08-01T00:12:08;7.60;;;3.40;;
62014;SDS011;47970;52.396;9.586;2022-08-01T00:14:34;10.03;;;4.00;;
62014;SDS011;47970;52.396;9.586;2022-08-01T00:16:59;7.77;;;3.80;;
62014;SDS011;47970;52.396;9.586;2022-08-01T00:19:24;10.70;;;3.65;;
62014;SDS011;47970;52.396;9.586;2022-08-01T00:21:49;8.47;;;3.37;;
62014;SDS011;47970;52.396;9.586;2022-08-01T00:24:15;7.70;;;3.87;;
62014;SDS011;47970;52.396;9.586;2022-08-01T00:26:40;11.40;;;3.67;;
62014;SDS011;47970;52.396;9.586;2022-08-01T00:29:05;6.77;;;3.50;;
62014;SDS011;47970;52.396;9.586;2022-08-01T00:31:30;9.00;;;3.80;;
62014;SDS011;47970;52.396;9.586;2022-08-01T00:33:56;7.37;;;3.60;;
62014;SDS011;47970;52.396;9.586;2022-08-01T00:36:21;7.57;;;3.80;;
62014;SDS011;47970;52.396;9.586;2022-08-01T00:38:46;11.07;;;4.27;;
62014;SDS011;47970;52.396;9.586;2022-08-01T00:41:11;9.00;;;4.03;;
62014;SDS011;47970;52.396;9.586;2022-08-01T00:43:36;8.27;;;4.15;;
62014;SDS011;47970;52.396;9.586;2022-08-01T00:46:02;9.77;;;3.78;;
62014;SDS011;47970;52.396;9.586;2022-08-01T00:48:27;7.30;;;3.70;;
62014;SDS011;47970;52.396;9.586;2022-08-01T00:50:52;11.30;;;3.77;;
62014;SDS011;47970;52.396;9.586;2022-08-01T00:53:17;6.85;;;3.30;;
62014;SDS011;47970;52.396;9.586;2022-08-01T00:55:43;9.63;;;3.43;;
62014;SDS011;47970;52.396;9.586;2022-08-01T00:58:08;10.05;;;3.30;;
62014;SDS011;47970;52.396;9.586;2022-08-01T01:00:34;6.10;;;3.33;;
62014;SDS011;47970;52.396;9.586;2022-08-01T01:02:59;8.38;;;4.45;;
62014;SDS011;47970;52.396;9.586;2022-08-01T01:05:25;9.93;;;3.90;;
62014;SDS011;47970;52.396;9.586;2022-08-01T01:07:53;5.93;;;3.67;;
62014;SDS011;47970;52.396;9.586;2022-08-01T01:10:27;8.07;;;3.88;;
62014;SDS011;47970;52.396;9.586;2022-08-01T01:15:37;6.40;;;3.30;;
62014;SDS011;47970;52.396;9.586;2022-08-01T01:18:29;5.60;;;3.33;;
62014;SDS011;47970;52.396;9.586;2022-08-01T01:31:37;4.65;;;3.08;;
62014;SDS011;47970;52.396;9.586;2022-08-01T01:34:04;6.95;;;3.53;;
62014;SDS011;47970;52.396;9.586;2022-08-01T01:36:29;12.00;;;3.58;;
62014;SDS011;47970;52.396;9.586;2022-08-01T01:38:55;8.40;;;3.80;;
62014;SDS011;47970;52.396;9.586;2022-08-01T01:41:21;3.97;;;3.15;;
62014;SDS011;47970;52.396;9.586;2022-08-01T01:43:47;9.10;;;3.70;;
62014;SDS011;47970;52.396;9.586;2022-08-01T01:46:15;8.50;;;3.22;;
62014;SDS011;47970;52.396;9.586;2022-08-01T01:48:42;6.40;;;3.03;;
62014;SDS011;47970;52.396;9.586;2022-08-01T01:51:08;7.10;;;3.42;;
62014;SDS011;47970;52.396;9.586;2022-08-01T01:53:34;7.30;;;3.10;;
62014;SDS011;47970;52.396;9.586;2022-08-01T01:56:00;5.68;;;2.63;;
62014;SDS011;47970;52.396;9.586;2022-08-01T01:58:26;4.38;;;2.63;;
62014;SDS011;47970;52.396;9.586;2022-08-01T02:00:52;4.88;;;2.40;;
62014;SDS011;47970;52.396;9.586;2022-08-01T02:03:20;5.43;;;2.20;;
62014;SDS011;47970;52.396;9.586;2022-08-01T02:05:46;5.03;;;2.60;;
62014;SDS011;47970;52.396;9.586;2022-08-01T02:08:13;7.20;;;2.40;;
62014;SDS011;47970;52.396;9.586;2022-08-01T02:10:39;4.25;;;2.35;;
62014;SDS011;47970;52.396;9.586;2022-08-01T02:13:05;4.00;;;2.10;;
62014;SDS011;47970;52.396;9.586;2022-08-01T02:15:31;5.10;;;2.05;;
62014;SDS011;47970;52.396;9.586;2022-08-01T02:17:58;5.88;;;2.42;;
62014;SDS011;47970;52.396;9.586;2022-08-01T02:20:24;3.97;;;2.22;;
62014;SDS011;47970;52.396;9.586;2022-08-01T02:22:53;4.10;;;2.05;;
62014;SDS011;47970;52.396;9.586;2022-08-01T02:25:35;2.95;;;2.00;;
62014;SDS011;47970;52.396;9.586;2022-08-01T02:28:03;4.07;;;1.80;;
62014;SDS011;47970;52.396;9.586;2022-08-01T02:30:31;4.25;;;1.77;;
62014;SDS011;47970;52.396;9.586;2022-08-01T02:33:07;2.83;;;1.85;;
62014;SDS011;47970;52.396;9.586;2022-08-01T02:35:37;4.07;;;2.13;;
62014;SDS011;47970;52.396;9.586;2022-08-01T02:38:03;3.50;;;2.15;;
62014;SDS011;47970;52.396;9.586;2022-08-01T02:40:32;3.70;;;1.75;;
62014;SDS011;47970;52.396;9.586;2022-08-01T02:42:57;3.15;;;1.90;;
62014;SDS011;47970;52.396;9.586;2022-08-01T02:45:24;5.00;;;2.10;;
62014;SDS011;47970;52.396;9.586;2022-08-01T02:47:50;3.55;;;1.88;;
62014;SDS011;47970;52.396;9.586;2022-08-01T02:50:16;5.35;;;2.08;;
62014;SDS011;47970;52.396;9.586;2022-08-01T02:52:43;4.63;;;2.20;;
62014;SDS011;47970;52.396;9.586;2022-08-01T02:55:11;9.55;;;1.63;;
62014;SDS011;47970;52.396;9.586;2022-08-01T02:57:37;4.82;;;1.90;;
62014;SDS011;47970;52.396;9.586;2022-08-01T03:00:03;7.32;;;1.70;;
62014;SDS011;47970;52.396;9.586;2022-08-01T03:02:29;2.10;;;1.40;;
62014;SDS011;47970;52.396;9.586;2022-08-01T03:04:55;4.85;;;1.42;;
62014;SDS011;47970;52.396;9.586;2022-08-01T03:07:22;2.53;;;1.40;;
62014;SDS011;47970;52.396;9.586;2022-08-01T03:09:49;3.35;;;1.40;;
62014;SDS011;47970;52.396;9.586;2022-08-01T03:12:16;3.88;;;1.60;;
62014;SDS011;47970;52.396;9.586;2022-08-01T03:14:42;3.65;;;1.45;;
62014;SDS011;47970;52.396;9.586;2022-08-01T03:17:08;3.58;;;1.50;;
62014;SDS011;47970;52.396;9.586;2022-08-01T03:19:34;2.35;;;1.30;;
62014;SDS011;47970;52.396;9.586;2022-08-01T03:22:01;3.15;;;1.60;;
62014;SDS011;47970;52.396;9.586;2022-08-01T03:24:28;1.48;;;1.13;;
62014;SDS011;47970;52.396;9.586;2022-08-01T03:26:53;4.80;;;1.40;;
62014;SDS011;47970;52.396;9.586;2022-08-01T03:29:21;2.15;;;1.50;;
62014;SDS011;47970;52.396;9.586;2022-08-01T03:31:47;4.88;;;1.67;;
62014;SDS011;47970;52.396;9.586;2022-08-01T03:34:13;2.55;;;1.77;;
62014;SDS011;47970;52.396;9.586;2022-08-01T03:36:47;2.78;;;1.80;;
62014;SDS011;47970;52.396;9.586;2022-08-01T03:39:13;2.70;;;2.20;;
62014;SDS011;47970;52.396;9.586;2022-08-01T03:41:40;4.63;;;2.10;;
62014;SDS011;47970;52.396;9.586;2022-08-01T03:44:16;2.80;;;2.00;;
62014;SDS011;47970;52.396;9.586;2022-08-01T03:46:50;4.38;;;1.95;;
62014;SDS011;47970;52.396;9.586;2022-08-01T03:49:20;3.67;;;2.20;;
62014;SDS011;47970;52.396;9.586;2022-08-01T03:51:47;4.32;;;2.30;;
62014;SDS011;47970;52.396;9.586;2022-08-01T03:54:14;2.75;;;2.10;;
62014;SDS011;47970;52.396;9.586;2022-08-01T03:56:40;4.80;;;2.50;;
62014;SDS011;47970;52.396;9.586;2022-08-01T03:59:06;4.15;;;2.45;;
62014;SDS011;47970;52.396;9.586;2022-08-01T04:01:33;5.18;;;3.10;;
62014;SDS011;47970;52.396;9.586;2022-08-01T04:03:59;5.13;;;2.80;;
62014;SDS011;47970;52.396;9.586;2022-08-01T04:06:25;5.47;;;3.10;;
62014;SDS011;47970;52.396;9.586;2022-08-01T04:08:50;5.00;;;3.30;;
62014;SDS011;47970;52.396;9.586;2022-08-01T04:11:24;4.65;;;3.03;;
62014;SDS011;47970;52.396;9.586;2022-08-01T04:13:51;7.97;;;3.15;;
62014;SDS011;47970;52.396;9.586;2022-08-01T04:16:16;5.28;;;2.72;;
62014;SDS011;47970;52.396;9.586;2022-08-01T04:18:41;4.97;;;3.22;;
62014;SDS011;47970;52.396;9.586;2022-08-01T04:21:06;4.33;;;2.57;;
62014;SDS011;47970;52.396;9.586;2022-08-01T04:23:32;4.22;;;2.97;;
62014;SDS011;47970;52.396;9.586;2022-08-01T04:25:59;5.10;;;2.83;;
62014;SDS011;47970;52.396;9.586;2022-08-01T04:28:25;4.22;;;2.88;;
62014;SDS011;47970;52.396;9.586;2022-08-01T04:30:51;6.18;;;3.40;;
62014;SDS011;47970;52.396;9.586;2022-08-01T04:33:19;4.67;;;2.93;;
62014;SDS011;47970;52.396;9.586;2022-08-01T04:35:45;8.18;;;2.78;;
62014;SDS011;47970;52.396;9.586;2022-08-01T04:38:10;4.30;;;2.78;;
62014;SDS011;47970;52.396;9.586;2022-08-01T04:40:37;5.60;;;2.80;;
62014;SDS011;47970;52.396;9.586;2022-08-01T04:43:03;7.63;;;3.35;;
62014;SDS011;47970;52.396;9.586;2022-08-01T04:45:28;4.70;;;2.92;;
62014;SDS011;47970;52.396;9.586;2022-08-01T04:47:54;4.43;;;2.85;;
62014;SDS011;47970;52.396;9.586;2022-08-01T04:50:19;5.05;;;2.75;;
62014;SDS011;47970;52.396;9.586;2022-08-01T04:52:46;5.35;;;2.58;;
62014;SDS011;47970;52.396;9.586;2022-08-01T04:55:12;7.80;;;3.10;;
62014;SDS011;47970;52.396;9.586;2022-08-01T04:57:38;5.70;;;2.57;;
62014;SDS011;47970;52.396;9.586;2022-08-01T05:00:04;6.38;;;2.95;;
62014;SDS011;47970;52.396;9.586;2022-08-01T05:02:29;5.45;;;3.00;;
62014;SDS011;47970;52.396;9.586;2022-08-01T05:04:55;4.73;;;2.90;;
62014;SDS011;47970;52.396;9.586;2022-08-01T05:07:20;7.22;;;2.67;;
62014;SDS011;47970;52.396;9.586;2022-08-01T05:09:46;5.22;;;2.47;;
62014;SDS011;47970;52.396;9.586;2022-08-01T05:12:11;3.58;;;2.10;;
62014;SDS011;47970;52.396;9.586;2022-08-01T05:14:36;6.63;;;2.15;;
62014;SDS011;47970;52.396;9.586;2022-08-01T05:17:02;3.65;;;2.08;;
62014;SDS011;47970;52.396;9.586;2022-08-01T05:19:35;4.00;;;2.15;;
62014;SDS011;47970;52.396;9.586;2022-08-01T05:22:00;3.75;;;2.20;;
62014;SDS011;47970;52.396;9.586;2022-08-01T05:24:29;5.00;;;2.58;;
62014;SDS011;47970;52.396;9.586;2022-08-01T05:26:55;3.05;;;2.15;;
62014;SDS011;47970;52.396;9.586;2022-08-01T05:29:20;2.97;;;2.10;;
62014;SDS011;47970;52.396;9.586;2022-08-01T05:31:45;3.80;;;2.43;;
62014;SDS011;47970;52.396;9.586;2022-08-01T05:34:11;3.27;;;2.20;;
62014;SDS011;47970;52.396;9.586;2022-08-01T05:36:36;2.93;;;2.10;;
62014;SDS011;47970;52.396;9.586;2022-08-01T05:39:02;4.05;;;2.33;;
62014;SDS011;47970;52.396;9.586;2022-08-01T05:41:27;3.70;;;2.67;;
62014;SDS011;47970;52.396;9.586;2022-08-01T05:43:53;5.67;;;2.60;;
62014;SDS011;47970;52.396;9.586;2022-08-01T05:46:18;4.23;;;2.93;;
62014;SDS011;47970;52.396;9.586;2022-08-01T05:48:43;4.27;;;2.63;;
62014;SDS011;47970;52.396;9.586;2022-08-01T05:51:08;4.67;;;2.70;;
62014;SDS011;47970;52.396;9.586;2022-08-01T05:53:33;4.60;;;2.80;;
62014;SDS011;47970;52.396;9.586;2022-08-01T05:55:59;4.53;;;3.30;;
62014;SDS011;47970;52.396;9.586;2022-08-01T05:58:24;4.47;;;2.70;;
62014;SDS011;47970;52.396;9.586;2022-08-01T06:00:49;4.93;;;3.20;;
62014;SDS011;47970;52.396;9.586;2022-08-01T06:03:15;3.93;;;2.83;;
62014;SDS011;47970;52.396;9.586;2022-08-01T06:05:40;4.67;;;3.00;;
62014;SDS011;47970;52.396;9.586;2022-08-01T06:08:05;4.68;;;2.35;;
62014;SDS011;47970;52.396;9.586;2022-08-01T06:10:30;3.87;;;2.70;;
62014;SDS011;47970;52.396;9.586;2022-08-01T06:12:56;5.80;;;2.60;;
62014;SDS011;47970;52.396;9.586;2022-08-01T06:15:21;4.53;;;2.20;;
62014;SDS011;47970;52.396;9.586;2022-08-01T06:17:46;5.07;;;2.20;;
62014;SDS011;47970;52.396;9.586;2022-08-01T06:20:11;2.40;;;1.73;;
62014;SDS011;47970;52.396;9.586;2022-08-01T06:22:36;2.63;;;1.60;;
62014;SDS011;47970;52.396;9.586;2022-08-01T06:25:02;3.20;;;1.63;;
62014;SDS011;47970;52.396;9.586;2022-08-01T06:27:27;3.03;;;1.77;;
62014;SDS011;47970;52.396;9.586;2022-08-01T06:29:52;3.37;;;1.77;;
62014;SDS011;47970;52.396;9.586;2022-08-01T06:32:21;3.17;;;1.80;;
62014;SDS011;47970;52.396;9.586;2022-08-01T06:34:51;4.30;;;1.48;;
62014;SDS011;47970;52.396;9.586;2022-08-01T06:37:16;3.60;;;1.57;;
62014;SDS011;47970;52.396;9.586;2022-08-01T06:39:41;1.55;;;1.30;;
62014;SDS011;47970;52.396;9.586;2022-08-01T06:42:06;1.90;;;1.40;;
62014;SDS011;47970;52.396;9.586;2022-08-01T06:44:32;4.32;;;1.50;;
62014;SDS011;47970;52.396;9.586;2022-08-01T06:46:57;2.57;;;1.60;;
62014;SDS011;47970;52.396;9.586;2022-08-01T06:49:25;4.25;;;1.38;;
62014;SDS011;47970;52.396;9.586;2022-08-01T06:51:50;3.97;;;1.47;;
62014;SDS011;47970;52.396;9.586;2022-08-01T06:54:15;3.13;;;1.25;;
62014;SDS011;47970;52.396;9.586;2022-08-01T06:56:41;5.38;;;1.42;;
62014;SDS011;47970;52.396;9.586;2022-08-01T06:59:06;1.88;;;1.30;;
62014;SDS011;47970;52.396;9.586;2022-08-01T07:01:31;1.63;;;1.17;;
62014;SDS011;47970;52.396;9.586;2022-08-01T07:03:57;3.85;;;1.30;;
62014;SDS011;47970;52.396;9.586;2022-08-01T07:06:22;1.77;;;1.20;;
62014;SDS011;47970;52.396;9.586;2022-08-01T07:08:48;3.17;;;1.30;;
62014;SDS011;47970;52.396;9.586;2022-08-01T07:11:13;1.70;;;0.93;;
62014;SDS011;47970;52.396;9.586;2022-08-01T07:13:38;2.67;;;1.10;;
62014;SDS011;47970;52.396;9.586;2022-08-01T07:16:04;5.50;;;1.40;;
62014;SDS011;47970;52.396;9.586;2022-08-01T07:18:29;3.38;;;1.20;;
62014;SDS011;47970;52.396;9.586;2022-08-01T07:20:54;1.40;;;1.15;;
62014;SDS011;47970;52.396;9.586;2022-08-01T07:23:20;3.43;;;1.50;;
62014;SDS011;47970;52.396;9.586;2022-08-01T07:25:45;31.83;;;2.20;;
62014;SDS011;47970;52.396;9.586;2022-08-01T07:28:10;3.30;;;1.80;;
62014;SDS011;47970;52.396;9.586;2022-08-01T07:30:35;4.00;;;1.40;;
62014;SDS011;47970;52.396;9.586;2022-08-01T07:33:01;4.53;;;1.60;;
62014;SDS011;47970;52.396;9.586;2022-08-01T07:35:26;1.98;;;1.20;;
62014;SDS011;47970;52.396;9.586;2022-08-01T07:37:52;4.17;;;1.20;;
62014;SDS011;47970;52.396;9.586;2022-08-01T07:40:18;1.70;;;1.08;;
62014;SDS011;47970;52.396;9.586;2022-08-01T07:42:43;1.65;;;1.00;;
62014;SDS011;47970;52.396;9.586;2022-08-01T07:45:10;4.45;;;0.70;;
62014;SDS011;47970;52.396;9.586;2022-08-01T07:47:36;2.30;;;0.75;;
62014;SDS011;47970;52.396;9.586;2022-08-01T07:50:02;2.13;;;0.63;;
62014;SDS011;47970;52.396;9.586;2022-08-01T07:52:28;1.00;;;0.65;;
62014;SDS011;47970;52.396;9.586;2022-08-01T07:54:54;1.20;;;0.60;;
62014;SDS011;47970;52.396;9.586;2022-08-01T07:57:21;0.88;;;0.80;;
62014;SDS011;47970;52.396;9.586;2022-08-01T07:59:46;1.92;;;1.00;;
62014;SDS011;47970;52.396;9.586;2022-08-01T08:02:11;1.83;;;0.80;;
62014;SDS011;47970;52.396;9.586;2022-08-01T08:04:36;1.60;;;0.80;;
62014;SDS011;47970;52.396;9.586;2022-08-01T08:07:02;1.03;;;0.70;;
62014;SDS011;47970;52.396;9.586;2022-08-01T08:09:27;0.80;;;0.70;;
62014;SDS011;47970;52.396;9.586;2022-08-01T08:11:53;0.97;;;0.60;;
62014;SDS011;47970;52.396;9.586;2022-08-01T08:14:18;3.80;;;1.00;;
62014;SDS011;47970;52.396;9.586;2022-08-01T08:16:43;0.95;;;0.68;;
62014;SDS011;47970;52.396;9.586;2022-08-01T08:19:09;2.15;;;1.00;;
62014;SDS011;47970;52.396;9.586;2022-08-01T08:21:35;2.03;;;0.82;;
62014;SDS011;47970;52.396;9.586;2022-08-01T08:24:01;2.25;;;0.82;;
62014;SDS011;47970;52.396;9.586;2022-08-01T08:26:45;4.13;;;0.93;;
62014;SDS011;47970;52.396;9.586;2022-08-01T08:29:10;1.27;;;0.82;;
62014;SDS011;47970;52.396;9.586;2022-08-01T08:31:35;1.67;;;0.80;;
62014;SDS011;47970;52.396;9.586;2022-08-01T08:34:01;2.97;;;0.83;;
62014;SDS011;47970;52.396;9.586;2022-08-01T08:36:26;2.08;;;0.75;;
62014;SDS011;47970;52.396;9.586;2022-08-01T08:38:51;1.37;;;0.67;;
62014;SDS011;47970;52.396;9.586;2022-08-01T08:41:17;2.97;;;0.90;;
62014;SDS011;47970;52.396;9.586;2022-08-01T08:43:42;3.33;;;0.97;;
62014;SDS011;47970;52.396;9.586;2022-08-01T08:46:07;1.13;;;0.90;;
62014;SDS011;47970;52.396;9.586;2022-08-01T08:48:33;1.65;;;0.70;;
62014;SDS011;47970;52.396;9.586;2022-08-01T08:50:59;2.53;;;1.00;;
62014;SDS011;47970;52.396;9.586;2022-08-01T08:53:25;2.83;;;0.88;;
62014;SDS011;47970;52.396;9.586;2022-08-01T08:55:51;1.95;;;0.80;;
62014;SDS011;47970;52.396;9.586;2022-08-01T08:58:18;6.32;;;0.98;;
62014;SDS011;47970;52.396;9.586;2022-08-01T09:00:44;1.63;;;0.85;;
62014;SDS011;47970;52.396;9.586;2022-08-01T09:03:09;1.50;;;0.75;;
62014;SDS011;47970;52.396;9.586;2022-08-01T09:05:35;3.97;;;1.00;;
62014;SDS011;47970;52.396;9.586;2022-08-01T09:08:00;2.25;;;0.95;;
62014;SDS011;47970;52.396;9.586;2022-08-01T09:10:25;1.70;;;1.07;;
62014;SDS011;47970;52.396;9.586;2022-08-01T09:15:49;2.30;;;1.00;;
62014;SDS011;47970;52.396;9.586;2022-08-01T09:21:18;1.48;;;0.70;;
62014;SDS011;47970;52.396;9.586;2022-08-01T09:23:46;2.28;;;0.70;;
62014;SDS011;47970;52.396;9.586;2022-08-01T09:26:12;1.67;;;0.73;;
62014;SDS011;47970;52.396;9.586;2022-08-01T09:28:38;3.28;;;1.27;;
62014;SDS011;47970;52.396;9.586;2022-08-01T09:31:07;4.03;;;0.90;;
62014;SDS011;47970;52.396;9.586;2022-08-01T09:36:17;2.88;;;1.20;;
62014;SDS011;47970;52.396;9.586;2022-08-01T09:38:42;2.72;;;1.05;;
62014;SDS011;47970;52.396;9.586;2022-08-01T09:41:08;3.17;;;1.70;;
62014;SDS011;47970;52.396;9.586;2022-08-01T09:43:33;4.20;;;1.90;;
62014;SDS011;47970;52.396;9.586;2022-08-01T09:45:59;5.05;;;2.13;;
62014;SDS011;47970;52.396;9.586;2022-08-01T09:48:25;4.85;;;2.13;;
62014;SDS011;47970;52.396;9.586;2022-08-01T09:50:51;4.32;;;2.30;;
62014;SDS011;47970;52.396;9.586;2022-08-01T09:53:17;3.83;;;2.20;;
62014;SDS011;47970;52.396;9.586;2022-08-01T09:55:43;4.07;;;2.50;;
62014;SDS011;47970;52.396;9.586;2022-08-01T09:58:09;6.53;;;2.42;;
62014;SDS011;47970;52.396;9.586;2022-08-01T10:00:36;6.43;;;3.00;;
62014;SDS011;47970;52.396;9.586;2022-08-01T10:05:46;5.85;;;2.40;;
62014;SDS011;47970;52.396;9.586;2022-08-01T10:08:12;6.28;;;2.33;;
62014;SDS011;47970;52.396;9.586;2022-08-01T10:10:37;5.13;;;2.70;;
62014;SDS011;47970;52.396;9.586;2022-08-01T10:13:02;4.60;;;2.53;;
62014;SDS011;47970;52.396;9.586;2022-08-01T10:15:28;6.53;;;3.08;;
62014;SDS011;47970;52.396;9.586;2022-08-01T10:17:56;5.35;;;2.88;;
62014;SDS011;47970;52.396;9.586;2022-08-01T10:20:26;9.07;;;3.00;;
62014;SDS011;47970;52.396;9.586;2022-08-01T10:22:51;4.28;;;2.45;;
62014;SDS011;47970;52.396;9.586;2022-08-01T10:25:18;4.85;;;2.30;;
62014;SDS011;47970;52.396;9.586;2022-08-01T10:27:44;6.28;;;2.63;;
62014;SDS011;47970;52.396;9.586;2022-08-01T10:30:11;8.77;;;3.70;;
62014;SDS011;47970;52.396;9.586;2022-08-01T10:32:37;7.32;;;2.90;;
62014;SDS011;47970;52.396;9.586;2022-08-01T10:35:05;4.80;;;2.10;;
62014;SDS011;47970;52.396;9.586;2022-08-01T10:37:32;5.15;;;1.85;;
62014;SDS011;47970;52.396;9.586;2022-08-01T10:39:58;5.90;;;1.33;;
62014;SDS011;47970;52.396;9.586;2022-08-01T10:42:24;6.00;;;1.60;;
62014;SDS011;47970;52.396;9.586;2022-08-01T10:44:49;4.85;;;1.50;;
62014;SDS011;47970;52.396;9.586;2022-08-01T10:47:18;4.93;;;1.45;;
62014;SDS011;47970;52.396;9.586;2022-08-01T10:49:53;3.47;;;1.48;;
62014;SDS011;47970;52.396;9.586;2022-08-01T10:52:20;5.13;;;1.55;;
62014;SDS011;47970;52.396;9.586;2022-08-01T10:54:45;3.88;;;1.67;;
62014;SDS011;47970;52.396;9.586;2022-08-01T10:57:11;4.78;;;1.80;;
62014;SDS011;47970;52.396;9.586;2022-08-01T10:59:47;3.88;;;1.60;;
62014;SDS011;47970;52.396;9.586;2022-08-01T11:02:12;3.55;;;1.73;;
62014;SDS011;47970;52.396;9.586;2022-08-01T11:05:04;6.95;;;1.75;;
62014;SDS011;47970;52.396;9.586;2022-08-01T11:10:28;5.75;;;1.80;;
62014;SDS011;47970;52.396;9.586;2022-08-01T11:12:55;7.28;;;1.60;;
62014;SDS011;47970;52.396;9.586;2022-08-01T11:15:21;9.93;;;1.75;;
62014;SDS011;47970;52.396;9.586;2022-08-01T11:17:50;4.50;;;1.63;;
62014;SDS011;47970;52.396;9.586;2022-08-01T11:30:43;5.93;;;1.70;;
62014;SDS011;47970;52.396;9.586;2022-08-01T11:33:09;6.22;;;2.00;;
62014;SDS011;47970;52.396;9.586;2022-08-01T11:35:34;7.15;;;2.33;;
62014;SDS011;47970;52.396;9.586;2022-08-01T11:40:43;8.70;;;2.00;;
62014;SDS011;47970;52.396;9.586;2022-08-01T11:45:53;4.50;;;1.73;;
62014;SDS011;47970;52.396;9.586;2022-08-01T11:48:22;5.07;;;1.63;;
62014;SDS011;47970;52.396;9.586;2022-08-01T11:50:52;6.63;;;2.05;;
62014;SDS011;47970;52.396;9.586;2022-08-01T11:53:17;5.85;;;1.45;;
62014;SDS011;47970;52.396;9.586;2022-08-01T11:55:48;8.57;;;2.03;;
62014;SDS011;47970;52.396;9.586;2022-08-01T11:58:14;5.15;;;2.10;;
62014;SDS011;47970;52.396;9.586;2022-08-01T12:00:39;8.38;;;2.25;;
62014;SDS011;47970;52.396;9.586;2022-08-01T12:03:05;7.20;;;1.83;;
62014;SDS011;47970;52.396;9.586;2022-08-01T12:05:31;6.28;;;1.92;;
62014;SDS011;47970;52.396;9.586;2022-08-01T12:07:58;6.85;;;1.90;;
62014;SDS011;47970;52.396;9.586;2022-08-01T12:10:24;4.57;;;1.60;;
62014;SDS011;47970;52.396;9.586;2022-08-01T12:12:54;4.75;;;1.90;;
62014;SDS011;47970;52.396;9.586;2022-08-01T12:15:20;4.10;;;1.73;;
62014;SDS011;47970;52.396;9.586;2022-08-01T12:17:47;4.20;;;1.63;;
62014;SDS011;47970;52.396;9.586;2022-08-01T12:20:14;7.38;;;2.25;;
62014;SDS011;47970;52.396;9.586;2022-08-01T12:22:40;11.85;;;2.10;;
62014;SDS011;47970;52.396;9.586;2022-08-01T12:25:06;3.60;;;1.50;;
62014;SDS011;47970;52.396;9.586;2022-08-01T12:27:32;6.00;;;1.58;;
62014;SDS011;47970;52.396;9.586;2022-08-01T12:29:57;5.70;;;1.90;;
62014;SDS011;47970;52.396;9.586;2022-08-01T12:32:24;3.85;;;1.50;;
62014;SDS011;47970;52.396;9.586;2022-08-01T12:34:50;8.07;;;2.10;;
62014;SDS011;47970;52.396;9.586;2022-08-01T12:37:16;6.28;;;1.85;;
62014;SDS011;47970;52.396;9.586;2022-08-01T12:39:41;10.65;;;2.55;;
62014;SDS011;47970;52.396;9.586;2022-08-01T12:42:07;9.52;;;2.30;;
62014;SDS011;47970;52.396;9.586;2022-08-01T12:44:33;7.03;;;2.10;;
62014;SDS011;47970;52.396;9.586;2022-08-01T12:46:58;4.50;;;2.10;;
62014;SDS011;47970;52.396;9.586;2022-08-01T12:49:24;5.93;;;2.17;;
62014;SDS011;47970;52.396;9.586;2022-08-01T12:51:50;7.15;;;2.00;;
62014;SDS011;47970;52.396;9.586;2022-08-01T12:54:15;6.03;;;2.00;;
62014;SDS011;47970;52.396;9.586;2022-08-01T12:56:40;7.55;;;2.22;;
62014;SDS011;47970;52.396;9.586;2022-08-01T12:59:22;6.37;;;1.80;;
62014;SDS011;47970;52.396;9.586;2022-08-01T13:01:50;7.85;;;2.13;;
62014;SDS011;47970;52.396;9.586;2022-08-01T13:04:15;6.40;;;2.22;;
62014;SDS011;47970;52.396;9.586;2022-08-01T13:06:40;5.40;;;1.80;;
62014;SDS011;47970;52.396;9.586;2022-08-01T13:09:06;4.95;;;1.63;;
62014;SDS011;47970;52.396;9.586;2022-08-01T13:11:32;7.35;;;1.90;;
62014;SDS011;47970;52.396;9.586;2022-08-01T13:13:57;9.35;;;2.45;;
62014;SDS011;47970;52.396;9.586;2022-08-01T13:16:25;10.10;;;2.30;;
62014;SDS011;47970;52.396;9.586;2022-08-01T13:18:54;6.63;;;1.92;;
62014;SDS011;47970;52.396;9.586;2022-08-01T13:27:19;4.53;;;2.00;;
62014;SDS011;47970;52.396;9.586;2022-08-01T13:29:37;11.20;;;2.10;;
62014;SDS011;47970;52.396;9.586;2022-08-01T13:34:38;7.18;;;2.47;;
62014;SDS011;47970;52.396;9.586;2022-08-01T13:37:03;6.13;;;2.30;;
62014;SDS011;47970;52.396;9.586;2022-08-01T13:39:29;8.73;;;2.60;;
62014;SDS011;47970;52.396;9.586;2022-08-01T13:42:08;8.70;;;2.60;;
62014;SDS011;47970;52.396;9.586;2022-08-01T13:44:34;6.57;;;2.53;;
62014;SDS011;47970;52.396;9.586;2022-08-01T13:46:59;8.87;;;2.50;;
62014;SDS011;47970;52.396;9.586;2022-08-01T13:49:24;8.05;;;2.47;;
62014;SDS011;47970;52.396;9.586;2022-08-01T13:51:50;11.40;;;2.47;;
62014;SDS011;47970;52.396;9.586;2022-08-01T13:54:15;7.78;;;2.50;;
62014;SDS011;47970;52.396;9.586;2022-08-01T13:56:41;8.30;;;2.20;;
62014;SDS011;47970;52.396;9.586;2022-08-01T13:59:06;10.75;;;2.13;;
62014;SDS011;47970;52.396;9.586;2022-08-01T14:01:31;9.20;;;2.65;;
62014;SDS011;47970;52.396;9.586;2022-08-01T14:03:57;10.07;;;2.80;;
62014;SDS011;47970;52.396;9.586;2022-08-01T14:06:22;7.83;;;2.93;;
62014;SDS011;47970;52.396;9.586;2022-08-01T14:08:47;10.20;;;2.60;;
62014;SDS011;47970;52.396;9.586;2022-08-01T14:11:13;10.65;;;2.60;;
62014;SDS011;47970;52.396;9.586;2022-08-01T14:13:38;7.30;;;2.40;;
62014;SDS011;47970;52.396;9.586;2022-08-01T14:16:05;9.20;;;2.70;;
62014;SDS011;47970;52.396;9.586;2022-08-01T14:18:30;7.60;;;2.53;;
62014;SDS011;47970;52.396;9.586;2022-08-01T14:20:55;6.57;;;2.63;;
62014;SDS011;47970;52.396;9.586;2022-08-01T14:23:21;7.13;;;2.10;;
62014;SDS011;47970;52.396;9.586;2022-08-01T14:25:46;5.07;;;2.13;;
62014;SDS011;47970;52.396;9.586;2022-08-01T14:28:11;9.77;;;2.80;;
62014;SDS011;47970;52.396;9.586;2022-08-01T14:30:36;8.93;;;2.33;;
62014;SDS011;47970;52.396;9.586;2022-08-01T14:33:02;6.53;;;2.13;;
62014;SDS011;47970;52.396;9.586;2022-08-01T14:35:27;8.90;;;2.55;;
62014;SDS011;47970;52.396;9.586;2022-08-01T14:37:52;8.70;;;2.40;;
62014;SDS011;47970;52.396;9.586;2022-08-01T14:40:18;10.90;;;2.78;;
62014;SDS011;47970;52.396;9.586;2022-08-01T14:42:43;10.57;;;2.20;;
62014;SDS011;47970;52.396;9.586;2022-08-01T14:45:09;7.43;;;2.88;;
62014;SDS011;47970;52.396;9.586;2022-08-01T14:47:36;12.27;;;2.63;;
62014;SDS011;47970;52.396;9.586;2022-08-01T14:50:02;6.28;;;2.15;;
62014;SDS011;47970;52.396;9.586;2022-08-01T14:52:27;10.55;;;2.40;;
62014;SDS011;47970;52.396;9.586;2022-08-01T14:54:53;7.87;;;2.17;;
62014;SDS011;47970;52.396;9.586;2022-08-01T14:57:18;9.53;;;2.43;;
62014;SDS011;47970;52.396;9.586;2022-08-01T14:59:43;9.27;;;2.10;;
62014;SDS011;47970;52.396;9.586;2022-08-01T15:02:08;7.65;;;1.90;;
62014;SDS011;47970;52.396;9.586;2022-08-01T15:04:36;6.63;;;1.75;;
62014;SDS011;47970;52.396;9.586;2022-08-01T15:07:01;5.88;;;1.60;;
62014;SDS011;47970;52.396;9.586;2022-08-01T15:09:26;5.83;;;1.70;;
62014;SDS011;47970;52.396;9.586;2022-08-01T15:11:51;8.00;;;1.80;;
62014;SDS011;47970;52.396;9.586;2022-08-01T15:14:17;6.07;;;1.60;;
62014;SDS011;47970;52.396;9.586;2022-08-01T15:17:00;6.38;;;1.75;;
62014;SDS011;47970;52.396;9.586;2022-08-01T15:19:26;12.60;;;2.33;;
62014;SDS011;47970;52.396;9.586;2022-08-01T15:21:51;7.60;;;1.90;;
62014;SDS011;47970;52.396;9.586;2022-08-01T15:24:16;5.70;;;1.50;;
62014;SDS011;47970;52.396;9.586;2022-08-01T15:26:42;9.30;;;1.60;;
62014;SDS011;47970;52.396;9.586;2022-08-01T15:29:07;10.70;;;1.80;;
62014;SDS011;47970;52.396;9.586;2022-08-01T15:31:32;5.70;;;1.40;;
62014;SDS011;47970;52.396;9.586;2022-08-01T15:33:57;6.23;;;1.47;;